sensor_id;sensor_type;location;lat;lon;timestamp;pressure;altitude;pressure_sealevel;temperature;humidity
68965;BME280;56017;48.680;8.998;2022-12-18T00:01:57;97750;;;-11;71.5
68965;BME280;56017;48.680;8.998;2022-12-18T00:04:27;97750;;;-11.1;71.5
68965;BME280;56017;48.680;8.998;2022-12-18T00:07:05;97750;;;-11.1;71.5
68965;BME280;56017;48.680;8.998;2022-12-18T00:09:29;97750;;;-11;71.5
68965;BME280;56017;48.680;8.998;2022-12-18T00:14:31;97730;;;-10.9;71.5
68965;BME280;56017;48.680;8.998;2022-12-18T00:17:02;97740;;;-10.9;71.5
68965;BME280;56017;48.680;8.998;2022-12-18T00:19:33;97740;;;-10.7;70.5
68965;BME280;56017;48.680;8.998;2022-12-18T00:22:04;97740;;;-10.8;70
68965;BME280;56017;48.680;8.998;2022-12-18T00:24:35;97750;;;-10.8;70.5
68965;BME280;56017;48.680;8.998;2022-12-18T00:27:07;97750;;;-11.1;71
68965;BME280;56017;48.680;8.998;2022-12-18T00:29:37;97750;;;-11.4;71
68965;BME280;56017;48.680;8.998;2022-12-18T00:32:09;97750;;;-11.5;71.5
68965;BME280;56017;48.680;8.998;2022-12-18T00:34:45;97760;;;-11.5;71.5
68965;BME280;56017;48.680;8.998;2022-12-18T00:39:41;97760;;;-11.3;72
68965;BME280;56017;48.680;8.998;2022-12-18T00:42:18;97750;;;-11.1;71.5
68965;BME280;56017;48.680;8.998;2022-12-18T00:44:43;97750;;;-11;71.5
68965;BME280;56017;48.680;8.998;2022-12-18T00:47:14;97740;;;-11;71.5
68965;BME280;56017;48.680;8.998;2022-12-18T00:49:51;97750;;;-11;71
68965;BME280;56017;48.680;8.998;2022-12-18T00:52:16;97750;;;-10.9;70.5
68965;BME280;56017;48.680;8.998;2022-12-18T00:54:47;97750;;;-11;70.5
68965;BME280;56017;48.680;8.998;2022-12-18T00:57:39;97760;;;-11.1;70.5
68965;BME280;56017;48.680;8.998;2022-12-18T00:59:49;97760;;;-11.2;70.5
68965;BME280;56017;48.680;8.998;2022-12-18T01:02:26;97760;;;-11.4;71
68965;BME280;56017;48.680;8.998;2022-12-18T01:04:50;97770;;;-11.4;71
68965;BME280;56017;48.680;8.998;2022-12-18T01:07:22;97760;;;-11.3;71.5
68965;BME280;56017;48.680;8.998;2022-12-18T01:09:52;97760;;;-11.2;71.5
68965;BME280;56017;48.680;8.998;2022-12-18T01:12:24;97760;;;-11.2;71
68965;BME280;56017;48.680;8.998;2022-12-18T01:15:01;97760;;;-11.3;71
68965;BME280;56017;48.680;8.998;2022-12-18T01:17:26;97760;;;-11.4;71.5
68965;BME280;56017;48.680;8.998;2022-12-18T01:19:56;97750;;;-11.4;71.5
68965;BME280;56017;48.680;8.998;2022-12-18T01:22:34;97750;;;-11.1;71
68965;BME280;56017;48.680;8.998;2022-12-18T01:24:58;97750;;;-11;70.5
68965;BME280;56017;48.680;8.998;2022-12-18T01:27:30;97750;;;-11.1;70.5
68965;BME280;56017;48.680;8.998;2022-12-18T01:30:00;97750;;;-11.2;71
68965;BME280;56017;48.680;8.998;2022-12-18T01:32:32;97750;;;-11.3;71
68965;BME280;56017;48.680;8.998;2022-12-18T01:35:02;97750;;;-11.3;71
68965;BME280;56017;48.680;8.998;2022-12-18T01:37:34;97760;;;-11.4;71
68965;BME280;56017;48.680;8.998;2022-12-18T01:40:04;97770;;;-11.4;71.5
68965;BME280;56017;48.680;8.998;2022-12-18T01:47:41;97760;;;-11;71.5
68965;BME280;56017;48.680;8.998;2022-12-18T01:50:16;97760;;;-10.7;71.5
68965;BME280;56017;48.680;8.998;2022-12-18T01:55:10;97750;;;-10.6;71.5
68965;BME280;56017;48.680;8.998;2022-12-18T01:57:41;97740;;;-10.7;71.5
68965;BME280;56017;48.680;8.998;2022-12-18T02:00:19;97740;;;-10.7;72
68965;BME280;56017;48.680;8.998;2022-12-18T02:02:44;97740;;;-10.7;72
68965;BME280;56017;48.680;8.998;2022-12-18T02:05:16;97740;;;-10.6;72
68965;BME280;56017;48.680;8.998;2022-12-18T02:07:59;97750;;;-10.3;72
68965;BME280;56017;48.680;8.998;2022-12-18T02:10:20;97750;;;-10;71.5
68965;BME280;56017;48.680;8.998;2022-12-18T02:12:52;97750;;;-9.8;71
68965;BME280;56017;48.680;8.998;2022-12-18T02:15:24;97740;;;-9.7;70.5
68965;BME280;56017;48.680;8.998;2022-12-18T02:17:51;97740;;;-9.7;70.5
68965;BME280;56017;48.680;8.998;2022-12-18T02:20:36;97740;;;-10;71
68965;BME280;56017;48.680;8.998;2022-12-18T02:22:55;97750;;;-10.1;71.5
68965;BME280;56017;48.680;8.998;2022-12-18T02:26:26;97740;;;-10.2;71.5
68965;BME280;56017;48.680;8.998;2022-12-18T02:27:53;97750;;;-10.1;72
68965;BME280;56017;48.680;8.998;2022-12-18T02:30:24;97760;;;-10;72
68965;BME280;56017;48.680;8.998;2022-12-18T02:33:02;97760;;;-10;71.5
68965;BME280;56017;48.680;8.998;2022-12-18T02:35:27;97760;;;-10;71.5
68965;BME280;56017;48.680;8.998;2022-12-18T02:37:57;97770;;;-9.9;71
68965;BME280;56017;48.680;8.998;2022-12-18T02:40:34;97760;;;-10;70.5
68965;BME280;56017;48.680;8.998;2022-12-18T02:43:06;97770;;;-10.1;70.5
68965;BME280;56017;48.680;8.998;2022-12-18T02:45:30;97770;;;-10.1;71
68965;BME280;56017;48.680;8.998;2022-12-18T02:48:01;97770;;;-9.9;71
68965;BME280;56017;48.680;8.998;2022-12-18T02:50:36;97760;;;-9.9;71
68965;BME280;56017;48.680;8.998;2022-12-18T02:53:14;97760;;;-9.8;71
68965;BME280;56017;48.680;8.998;2022-12-18T02:55:53;97770;;;-9.8;70.5
68965;BME280;56017;48.680;8.998;2022-12-18T02:58:07;97770;;;-9.9;71
68965;BME280;56017;48.680;8.998;2022-12-18T03:00:38;97770;;;-9.9;71
68965;BME280;56017;48.680;8.998;2022-12-18T03:03:14;97760;;;-9.9;71
68965;BME280;56017;48.680;8.998;2022-12-18T03:05:39;97750;;;-9.9;71
68965;BME280;56017;48.680;8.998;2022-12-18T03:08:26;97760;;;-9.8;70.5
68965;BME280;56017;48.680;8.998;2022-12-18T03:10:42;97760;;;-9.9;71
68965;BME280;56017;48.680;8.998;2022-12-18T03:15:42;97770;;;-9.7;71
68965;BME280;56017;48.680;8.998;2022-12-18T03:18:14;97770;;;-9.6;71
68965;BME280;56017;48.680;8.998;2022-12-18T03:20:44;97770;;;-9.4;70.5
68965;BME280;56017;48.680;8.998;2022-12-18T03:23:17;97780;;;-9.4;70.5
68965;BME280;56017;48.680;8.998;2022-12-18T03:25:45;97770;;;-9.4;70.5
68965;BME280;56017;48.680;8.998;2022-12-18T03:28:23;97770;;;-9.4;70.5
68965;BME280;56017;48.680;8.998;2022-12-18T03:30:48;97780;;;-9.5;70.5
68965;BME280;56017;48.680;8.998;2022-12-18T03:33:23;97780;;;-9.7;71
68965;BME280;56017;48.680;8.998;2022-12-18T03:35:49;97780;;;-9.9;71.5
68965;BME280;56017;48.680;8.998;2022-12-18T03:38:21;97770;;;-9.8;71.5
68965;BME280;56017;48.680;8.998;2022-12-18T03:40:53;97770;;;-9.8;71.5
68965;BME280;56017;48.680;8.998;2022-12-18T03:43:27;97770;;;-9.6;71.5
68965;BME280;56017;48.680;8.998;2022-12-18T03:45:54;97770;;;-9.6;71
68965;BME280;56017;48.680;8.998;2022-12-18T03:48:31;97770;;;-9.5;71
68965;BME280;56017;48.680;8.998;2022-12-18T03:51:05;97770;;;-9.4;71
68965;BME280;56017;48.680;8.998;2022-12-18T03:53:36;97770;;;-9.5;71
68965;BME280;56017;48.680;8.998;2022-12-18T03:55:57;97760;;;-9.7;71.5
68965;BME280;56017;48.680;8.998;2022-12-18T03:58:29;97770;;;-9.6;71
68965;BME280;56017;48.680;8.998;2022-12-18T04:01:00;97770;;;-9.7;70.5
68965;BME280;56017;48.680;8.998;2022-12-18T04:03:31;97770;;;-9.7;70.5
68965;BME280;56017;48.680;8.998;2022-12-18T04:06:01;97770;;;-9.8;71
68965;BME280;56017;48.680;8.998;2022-12-18T04:08:32;97770;;;-10;71.5
68965;BME280;56017;48.680;8.998;2022-12-18T04:11:03;97770;;;-10.1;71.5
68965;BME280;56017;48.680;8.998;2022-12-18T04:13:35;97770;;;-10.2;72
68965;BME280;56017;48.680;8.998;2022-12-18T04:16:05;97770;;;-10.2;72
68965;BME280;56017;48.680;8.998;2022-12-18T04:18:43;97780;;;-10;72
68965;BME280;56017;48.680;8.998;2022-12-18T04:21:07;97770;;;-9.9;71.5
68965;BME280;56017;48.680;8.998;2022-12-18T04:23:38;97770;;;-10.1;71.5
68965;BME280;56017;48.680;8.998;2022-12-18T04:26:09;97780;;;-10.2;72
68965;BME280;56017;48.680;8.998;2022-12-18T04:28:41;97780;;;-10.2;72
68965;BME280;56017;48.680;8.998;2022-12-18T04:31:10;97790;;;-9.9;71.5
68965;BME280;56017;48.680;8.998;2022-12-18T04:33:42;97790;;;-10;71.5
68965;BME280;56017;48.680;8.998;2022-12-18T04:36:12;97780;;;-10;72
68965;BME280;56017;48.680;8.998;2022-12-18T04:38:44;97780;;;-10;72
68965;BME280;56017;48.680;8.998;2022-12-18T04:41:14;97780;;;-9.8;72
68965;BME280;56017;48.680;8.998;2022-12-18T04:43:49;97790;;;-9.7;71.5
68965;BME280;56017;48.680;8.998;2022-12-18T04:46:23;97780;;;-9.6;71.5
68965;BME280;56017;48.680;8.998;2022-12-18T04:48:47;97780;;;-9.7;71.5
68965;BME280;56017;48.680;8.998;2022-12-18T04:51:18;97780;;;-9.7;72
68965;BME280;56017;48.680;8.998;2022-12-18T04:53:49;97760;;;-9.7;72
68965;BME280;56017;48.680;8.998;2022-12-18T04:56:20;97760;;;-9.8;72
68965;BME280;56017;48.680;8.998;2022-12-18T04:58:51;97760;;;-9.9;72.5
68965;BME280;56017;48.680;8.998;2022-12-18T05:01:28;97760;;;-9.7;72.5
68965;BME280;56017;48.680;8.998;2022-12-18T05:03:53;97760;;;-9.4;72.5
68965;BME280;56017;48.680;8.998;2022-12-18T05:06:24;97760;;;-9;71.5
68965;BME280;56017;48.680;8.998;2022-12-18T05:08:56;97760;;;-8.9;71.5
68965;BME280;56017;48.680;8.998;2022-12-18T05:11:26;97770;;;-9.1;72
68965;BME280;56017;48.680;8.998;2022-12-18T05:14:03;97760;;;-8.9;72
68965;BME280;56017;48.680;8.998;2022-12-18T05:16:28;97760;;;-8.7;71.5
68965;BME280;56017;48.680;8.998;2022-12-18T05:18:59;97760;;;-8.8;71.5
68965;BME280;56017;48.680;8.998;2022-12-18T05:21:36;97770;;;-9;71
68965;BME280;56017;48.680;8.998;2022-12-18T05:24:01;97770;;;-9.3;72
68965;BME280;56017;48.680;8.998;2022-12-18T05:26:32;97770;;;-9.1;72
68965;BME280;56017;48.680;8.998;2022-12-18T05:29:03;97770;;;-9.1;71.5
68965;BME280;56017;48.680;8.998;2022-12-18T05:31:34;97770;;;-9;71
68965;BME280;56017;48.680;8.998;2022-12-18T05:34:05;97770;;;-9;71
68965;BME280;56017;48.680;8.998;2022-12-18T05:36:36;97780;;;-9;71
68965;BME280;56017;48.680;8.998;2022-12-18T05:39:08;97780;;;-8.8;71.5
68965;BME280;56017;48.680;8.998;2022-12-18T05:41:38;97780;;;-9;71.5
68965;BME280;56017;48.680;8.998;2022-12-18T05:44:09;97780;;;-9.3;72
68965;BME280;56017;48.680;8.998;2022-12-18T05:46:40;97770;;;-9.5;72
68965;BME280;56017;48.680;8.998;2022-12-18T05:49:11;97780;;;-9.7;72.5
68965;BME280;56017;48.680;8.998;2022-12-18T05:51:42;97770;;;-9.7;72.5
68965;BME280;56017;48.680;8.998;2022-12-18T05:54:13;97770;;;-9.7;72.5
68965;BME280;56017;48.680;8.998;2022-12-18T05:56:50;97760;;;-9.8;72.5
68965;BME280;56017;48.680;8.998;2022-12-18T05:59:21;97760;;;-9.8;72.5
68965;BME280;56017;48.680;8.998;2022-12-18T06:01:45;97760;;;-9.7;72.5
68965;BME280;56017;48.680;8.998;2022-12-18T06:04:23;97760;;;-9.5;72.5
68965;BME280;56017;48.680;8.998;2022-12-18T06:06:47;97770;;;-9.4;72
68965;BME280;56017;48.680;8.998;2022-12-18T06:09:19;97770;;;-9.5;72
68965;BME280;56017;48.680;8.998;2022-12-18T06:11:51;97770;;;-9.6;72.5
68965;BME280;56017;48.680;8.998;2022-12-18T06:14:21;97780;;;-9.8;72.5
68965;BME280;56017;48.680;8.998;2022-12-18T06:16:51;97790;;;-9.8;73
68965;BME280;56017;48.680;8.998;2022-12-18T06:19:23;97790;;;-9.7;73
68965;BME280;56017;48.680;8.998;2022-12-18T06:21:53;97800;;;-9.7;73
68965;BME280;56017;48.680;8.998;2022-12-18T06:24:24;97800;;;-9.7;73
68965;BME280;56017;48.680;8.998;2022-12-18T06:26:55;97800;;;-9.7;73
68965;BME280;56017;48.680;8.998;2022-12-18T06:31:57;97800;;;-9.7;73
68965;BME280;56017;48.680;8.998;2022-12-18T06:34:29;97800;;;-9.9;73
68965;BME280;56017;48.680;8.998;2022-12-18T06:36:59;97810;;;-10;72.5
68965;BME280;56017;48.680;8.998;2022-12-18T06:39:30;97810;;;-10.1;72.5
68965;BME280;56017;48.680;8.998;2022-12-18T06:42:01;97800;;;-10.3;73
68965;BME280;56017;48.680;8.998;2022-12-18T06:44:32;97810;;;-10.2;73
68965;BME280;56017;48.680;8.998;2022-12-18T06:47:03;97810;;;-10.1;72
68965;BME280;56017;48.680;8.998;2022-12-18T06:49:34;97810;;;-10;72
68965;BME280;56017;48.680;8.998;2022-12-18T06:52:05;97810;;;-10.1;72
68965;BME280;56017;48.680;8.998;2022-12-18T06:54:37;97810;;;-10.2;72
68965;BME280;56017;48.680;8.998;2022-12-18T06:57:07;97810;;;-10.2;72.5
68965;BME280;56017;48.680;8.998;2022-12-18T06:59:44;97830;;;-10.3;72.5
68965;BME280;56017;48.680;8.998;2022-12-18T07:02:11;97830;;;-10.2;72.5
68965;BME280;56017;48.680;8.998;2022-12-18T07:04:40;97830;;;-10.1;72
68965;BME280;56017;48.680;8.998;2022-12-18T07:07:11;97840;;;-10.2;72
68965;BME280;56017;48.680;8.998;2022-12-18T07:09:42;97840;;;-10.2;72.5
68965;BME280;56017;48.680;8.998;2022-12-18T07:12:19;97850;;;-10.2;72.5
68965;BME280;56017;48.680;8.998;2022-12-18T07:14:50;97850;;;-10.1;72.5
68965;BME280;56017;48.680;8.998;2022-12-18T07:17:15;97850;;;-10.1;72.5
68965;BME280;56017;48.680;8.998;2022-12-18T07:19:46;97840;;;-10.2;72
68965;BME280;56017;48.680;8.998;2022-12-18T07:24:48;97850;;;-10.3;72.5
68965;BME280;56017;48.680;8.998;2022-12-18T07:27:18;97850;;;-10.2;72.5
68965;BME280;56017;48.680;8.998;2022-12-18T07:29:49;97850;;;-10;72.5
68965;BME280;56017;48.680;8.998;2022-12-18T07:32:20;97840;;;-9.9;72
68965;BME280;56017;48.680;8.998;2022-12-18T07:37:22;97840;;;-9.9;72.5
68965;BME280;56017;48.680;8.998;2022-12-18T07:39:53;97830;;;-9.6;72
68965;BME280;56017;48.680;8.998;2022-12-18T07:42:30;97830;;;-9.4;71.5
68965;BME280;56017;48.680;8.998;2022-12-18T07:45:01;97830;;;-9.3;71
68965;BME280;56017;48.680;8.998;2022-12-18T07:47:44;97830;;;-9.3;71
68965;BME280;56017;48.680;8.998;2022-12-18T07:50:07;97840;;;-9.3;71.5
68965;BME280;56017;48.680;8.998;2022-12-18T07:52:31;97850;;;-9.4;72
68965;BME280;56017;48.680;8.998;2022-12-18T07:55:01;97850;;;-9.4;72
68965;BME280;56017;48.680;8.998;2022-12-18T07:57:45;97850;;;-9.3;72.5
68965;BME280;56017;48.680;8.998;2022-12-18T08:00:09;97840;;;-9.3;72.5
68965;BME280;56017;48.680;8.998;2022-12-18T08:02:32;97850;;;-9.2;72.5
68965;BME280;56017;48.680;8.998;2022-12-18T08:05:02;97850;;;-9.1;72.5
68965;BME280;56017;48.680;8.998;2022-12-18T08:07:32;97850;;;-9;72.5
68965;BME280;56017;48.680;8.998;2022-12-18T08:10:09;97840;;;-8.8;72
68965;BME280;56017;48.680;8.998;2022-12-18T08:12:32;97850;;;-8.7;71.5
68965;BME280;56017;48.680;8.998;2022-12-18T08:15:03;97850;;;-8.6;71
68965;BME280;56017;48.680;8.998;2022-12-18T08:22:28;97850;;;-8.5;72
68965;BME280;56017;48.680;8.998;2022-12-18T08:25:05;97850;;;-8.4;72
68965;BME280;56017;48.680;8.998;2022-12-18T08:27:30;97850;;;-8.3;72.5
68965;BME280;56017;48.680;8.998;2022-12-18T08:30:07;97850;;;-8.2;72.5
68965;BME280;56017;48.680;8.998;2022-12-18T08:35:09;97850;;;-7.9;73
68965;BME280;56017;48.680;8.998;2022-12-18T08:37:34;97850;;;-7.7;73
68965;BME280;56017;48.680;8.998;2022-12-18T08:42:36;97850;;;-7.6;73
68965;BME280;56017;48.680;8.998;2022-12-18T08:45:13;97850;;;-7.4;73.5
68965;BME280;56017;48.680;8.998;2022-12-18T08:47:38;97850;;;-7.1;73.5
68965;BME280;56017;48.680;8.998;2022-12-18T08:50:09;97850;;;-6.8;73.5
68965;BME280;56017;48.680;8.998;2022-12-18T08:55:17;97830;;;-6.2;73.5
68965;BME280;56017;48.680;8.998;2022-12-18T09:00:19;97830;;;-5.9;74
68965;BME280;56017;48.680;8.998;2022-12-18T09:05:21;97820;;;-5.4;74
68965;BME280;56017;48.680;8.998;2022-12-18T09:12:48;97820;;;-4.7;75
68965;BME280;56017;48.680;8.998;2022-12-18T09:15:25;97820;;;-4.5;75
68965;BME280;56017;48.680;8.998;2022-12-18T09:17:49;97810;;;-4.2;75
68965;BME280;56017;48.680;8.998;2022-12-18T09:20:20;97810;;;-4;75
68965;BME280;56017;48.680;8.998;2022-12-18T09:22:51;97810;;;-3.6;75
68965;BME280;56017;48.680;8.998;2022-12-18T09:25:28;97810;;;-3.1;75
68965;BME280;56017;48.680;8.998;2022-12-18T09:30:23;97800;;;-2;74
68965;BME280;56017;48.680;8.998;2022-12-18T09:37:56;97800;;;-1.6;75.5
68965;BME280;56017;48.680;8.998;2022-12-18T09:40:28;97790;;;-1.6;77
68965;BME280;56017;48.680;8.998;2022-12-18T09:42:59;97800;;;-1.6;77.5
68965;BME280;56017;48.680;8.998;2022-12-18T09:45:35;97800;;;-1.4;78.5
68965;BME280;56017;48.680;8.998;2022-12-18T09:48:00;97800;;;-1.1;78.5
68965;BME280;56017;48.680;8.998;2022-12-18T09:50:32;97790;;;-0.5;78.5
68965;BME280;56017;48.680;8.998;2022-12-18T09:55:34;97800;;;-0.5;79
68965;BME280;56017;48.680;8.998;2022-12-18T09:58:06;97790;;;-0.5;79.5
68965;BME280;56017;48.680;8.998;2022-12-18T10:00:35;97790;;;-0.5;79
68965;BME280;56017;48.680;8.998;2022-12-18T10:03:10;97800;;;-0.8;78
68965;BME280;56017;48.680;8.998;2022-12-18T10:05:40;97800;;;-1;78
68965;BME280;56017;48.680;8.998;2022-12-18T10:08:13;97800;;;-1.3;78
68965;BME280;56017;48.680;8.998;2022-12-18T10:10:44;97800;;;-1.5;79
68965;BME280;56017;48.680;8.998;2022-12-18T10:15:45;97800;;;-1.9;78.5
68965;BME280;56017;48.680;8.998;2022-12-18T10:20:45;97800;;;-1.9;79
68965;BME280;56017;48.680;8.998;2022-12-18T10:23:24;97800;;;-1.9;79
68965;BME280;56017;48.680;8.998;2022-12-18T10:25:50;97800;;;-1.8;79
68965;BME280;56017;48.680;8.998;2022-12-18T10:30:47;97800;;;-1.2;79
68965;BME280;56017;48.680;8.998;2022-12-18T10:33:19;97800;;;-1.2;80
68965;BME280;56017;48.680;8.998;2022-12-18T10:35:50;97800;;;-1.1;79.5
68965;BME280;56017;48.680;8.998;2022-12-18T10:38:21;97800;;;-0.6;79
68965;BME280;56017;48.680;8.998;2022-12-18T10:40:59;97790;;;-0.6;78.5
68965;BME280;56017;48.680;8.998;2022-12-18T10:43:23;97790;;;-0.6;78.5
68965;BME280;56017;48.680;8.998;2022-12-18T10:45:58;97800;;;-0.7;79
68965;BME280;56017;48.680;8.998;2022-12-18T10:48:30;97790;;;-0.6;79
68965;BME280;56017;48.680;8.998;2022-12-18T10:50:55;97800;;;-0.5;79
68965;BME280;56017;48.680;8.998;2022-12-18T10:53:27;97800;;;-0.5;79
68965;BME280;56017;48.680;8.998;2022-12-18T10:55:57;97800;;;-0.2;79
68965;BME280;56017;48.680;8.998;2022-12-18T10:58:29;97790;;;0.1;78.5
68965;BME280;56017;48.680;8.998;2022-12-18T11:01:06;97790;;;0.4;77.5
68965;BME280;56017;48.680;8.998;2022-12-18T11:03:31;97780;;;0.3;78
68965;BME280;56017;48.680;8.998;2022-12-18T11:06:01;97780;;;0.2;78.5
68965;BME280;56017;48.680;8.998;2022-12-18T11:08:30;97770;;;0.2;79
68965;BME280;56017;48.680;8.998;2022-12-18T11:11:24;97770;;;0.2;79.5
68965;BME280;56017;48.680;8.998;2022-12-18T11:13:32;97770;;;0.3;78.5
68965;BME280;56017;48.680;8.998;2022-12-18T11:16:03;97760;;;0.3;79
68965;BME280;56017;48.680;8.998;2022-12-18T11:18:34;97760;;;0.7;78.5
68965;BME280;56017;48.680;8.998;2022-12-18T11:21:06;97760;;;0.6;78
68965;BME280;56017;48.680;8.998;2022-12-18T11:23:36;97770;;;0.5;79.5
68965;BME280;56017;48.680;8.998;2022-12-18T11:26:14;97770;;;0.8;79
68965;BME280;56017;48.680;8.998;2022-12-18T11:28:40;97770;;;1;78.5
68965;BME280;56017;48.680;8.998;2022-12-18T11:33:41;97760;;;1;79.5
68965;BME280;56017;48.680;8.998;2022-12-18T11:36:18;97770;;;1.4;79
68965;BME280;56017;48.680;8.998;2022-12-18T11:38:42;97760;;;1.6;78
68965;BME280;56017;48.680;8.998;2022-12-18T11:41:23;97750;;;1.6;78
68965;BME280;56017;48.680;8.998;2022-12-18T11:43:47;97750;;;1.5;78.5
68965;BME280;56017;48.680;8.998;2022-12-18T11:46:19;97740;;;1.4;78
68965;BME280;56017;48.680;8.998;2022-12-18T11:48:49;97750;;;1.5;78
68965;BME280;56017;48.680;8.998;2022-12-18T11:51:26;97750;;;1.5;78
68965;BME280;56017;48.680;8.998;2022-12-18T11:53:48;97740;;;1.9;78.5
68965;BME280;56017;48.680;8.998;2022-12-18T11:56:27;97740;;;2.3;78.5
68965;BME280;56017;48.680;8.998;2022-12-18T11:58:51;97730;;;2.7;78.5
68965;BME280;56017;48.680;8.998;2022-12-18T12:01:32;97730;;;2.7;78.5
68965;BME280;56017;48.680;8.998;2022-12-18T12:03:57;97730;;;2.5;78.5
68965;BME280;56017;48.680;8.998;2022-12-18T12:06:36;97730;;;2.2;79
68965;BME280;56017;48.680;8.998;2022-12-18T12:09:04;97730;;;2.3;79
68965;BME280;56017;48.680;8.998;2022-12-18T12:11:44;97720;;;2.4;78.5
68965;BME280;56017;48.680;8.998;2022-12-18T12:14:09;97720;;;2.3;78.5
68965;BME280;56017;48.680;8.998;2022-12-18T12:16:36;97720;;;2.2;78.5
68965;BME280;56017;48.680;8.998;2022-12-18T12:19:02;97710;;;2.1;80
68965;BME280;56017;48.680;8.998;2022-12-18T12:21:39;97710;;;2.4;79
68965;BME280;56017;48.680;8.998;2022-12-18T12:24:12;97710;;;2.4;78.5
68965;BME280;56017;48.680;8.998;2022-12-18T12:26:42;97710;;;2.5;78
68965;BME280;56017;48.680;8.998;2022-12-18T12:29:06;97710;;;2.5;77.5
68965;BME280;56017;48.680;8.998;2022-12-18T12:31:43;97710;;;2.4;78
68965;BME280;56017;48.680;8.998;2022-12-18T12:34:11;97710;;;2.4;78
68965;BME280;56017;48.680;8.998;2022-12-18T12:37:17;97710;;;2.4;78
68965;BME280;56017;48.680;8.998;2022-12-18T12:39:06;97720;;;2.3;78.5
68965;BME280;56017;48.680;8.998;2022-12-18T12:41:37;97720;;;2.3;78
68965;BME280;56017;48.680;8.998;2022-12-18T12:44:08;97720;;;1.7;78.5
68965;BME280;56017;48.680;8.998;2022-12-18T12:46:39;97730;;;1.1;80.5
68965;BME280;56017;48.680;8.998;2022-12-18T12:49:12;97730;;;0.9;81
68965;BME280;56017;48.680;8.998;2022-12-18T12:51:41;97740;;;0.8;81
68965;BME280;56017;48.680;8.998;2022-12-18T12:54:14;97740;;;0.6;81.5
68965;BME280;56017;48.680;8.998;2022-12-18T12:56:52;97740;;;0.6;81.5
68965;BME280;56017;48.680;8.998;2022-12-18T13:02:24;97740;;;1.2;80.5
68965;BME280;56017;48.680;8.998;2022-12-18T13:04:19;97740;;;1.3;79.5
68965;BME280;56017;48.680;8.998;2022-12-18T13:09:17;97750;;;1.3;79.5
68965;BME280;56017;48.680;8.998;2022-12-18T13:11:49;97750;;;1.3;79.5
68965;BME280;56017;48.680;8.998;2022-12-18T13:14:20;97750;;;1.2;79.5
68965;BME280;56017;48.680;8.998;2022-12-18T13:17:29;97740;;;1.2;79.5
68965;BME280;56017;48.680;8.998;2022-12-18T13:19:22;97740;;;1.3;79.5
68965;BME280;56017;48.680;8.998;2022-12-18T13:21:59;97740;;;1.5;79
68965;BME280;56017;48.680;8.998;2022-12-18T13:24:25;97740;;;1.6;78.5
68965;BME280;56017;48.680;8.998;2022-12-18T13:26:56;97730;;;1.6;79
68965;BME280;56017;48.680;8.998;2022-12-18T13:29:41;97730;;;1.8;78.5
68965;BME280;56017;48.680;8.998;2022-12-18T13:31:58;97730;;;1.8;78.5
68965;BME280;56017;48.680;8.998;2022-12-18T13:34:29;97730;;;1.7;78.5
68965;BME280;56017;48.680;8.998;2022-12-18T13:39:31;97720;;;1.6;78.5
68965;BME280;56017;48.680;8.998;2022-12-18T13:42:31;97720;;;1.6;79
68965;BME280;56017;48.680;8.998;2022-12-18T13:44:33;97720;;;1.6;78.5
68965;BME280;56017;48.680;8.998;2022-12-18T13:47:04;97720;;;1.3;79
68965;BME280;56017;48.680;8.998;2022-12-18T13:49:37;97720;;;1.2;80
68965;BME280;56017;48.680;8.998;2022-12-18T13:52:36;97720;;;1.2;80.5
68965;BME280;56017;48.680;8.998;2022-12-18T13:54:42;97710;;;1.4;80
68965;BME280;56017;48.680;8.998;2022-12-18T13:57:28;97720;;;1.6;80
68965;BME280;56017;48.680;8.998;2022-12-18T13:59:37;97720;;;1.7;79.5
68965;BME280;56017;48.680;8.998;2022-12-18T14:02:16;97720;;;1.4;79
68965;BME280;56017;48.680;8.998;2022-12-18T14:07:17;97730;;;0.6;80.5
68965;BME280;56017;48.680;8.998;2022-12-18T14:09:42;97720;;;0.5;81.5
68965;BME280;56017;48.680;8.998;2022-12-18T14:12:21;97720;;;0.5;81
68965;BME280;56017;48.680;8.998;2022-12-18T14:14:44;97720;;;0.5;81
68965;BME280;56017;48.680;8.998;2022-12-18T14:17:14;97730;;;0.2;81
68965;BME280;56017;48.680;8.998;2022-12-18T14:19:45;97730;;;0;81
68965;BME280;56017;48.680;8.998;2022-12-18T14:22:18;97730;;;-0.1;81.5
68965;BME280;56017;48.680;8.998;2022-12-18T14:24:47;97730;;;-0.1;82
68965;BME280;56017;48.680;8.998;2022-12-18T14:27:20;97730;;;-0.2;82
68965;BME280;56017;48.680;8.998;2022-12-18T14:29:49;97730;;;-0.2;81.5
68965;BME280;56017;48.680;8.998;2022-12-18T14:32:26;97730;;;-0.3;81.5
68965;BME280;56017;48.680;8.998;2022-12-18T14:34:51;97730;;;-0.5;82
68965;BME280;56017;48.680;8.998;2022-12-18T14:37:24;97730;;;-0.6;82
68965;BME280;56017;48.680;8.998;2022-12-18T14:40:01;97730;;;-0.7;82
68965;BME280;56017;48.680;8.998;2022-12-18T14:42:30;97730;;;-0.8;82
68965;BME280;56017;48.680;8.998;2022-12-18T14:45:58;97730;;;-0.9;82.5
68965;BME280;56017;48.680;8.998;2022-12-18T14:47:32;97730;;;-1;82.5
68965;BME280;56017;48.680;8.998;2022-12-18T14:49:56;97730;;;-0.6;81.5
68965;BME280;56017;48.680;8.998;2022-12-18T14:54:58;97740;;;-0.6;80
68965;BME280;56017;48.680;8.998;2022-12-18T14:57:36;97740;;;-0.6;79.5
68965;BME280;56017;48.680;8.998;2022-12-18T15:00:14;97740;;;-0.6;79.5
68965;BME280;56017;48.680;8.998;2022-12-18T15:02:38;97730;;;-0.6;78.5
68965;BME280;56017;48.680;8.998;2022-12-18T15:05:04;97740;;;-0.7;79
68965;BME280;56017;48.680;8.998;2022-12-18T15:07:41;97740;;;-0.7;79
68965;BME280;56017;48.680;8.998;2022-12-18T15:10:16;97740;;;-0.8;78.5
68965;BME280;56017;48.680;8.998;2022-12-18T15:12:43;97740;;;-1;78.5
68965;BME280;56017;48.680;8.998;2022-12-18T15:15:44;97740;;;-1;78.5
68965;BME280;56017;48.680;8.998;2022-12-18T15:17:37;97740;;;-1.1;78.5
68965;BME280;56017;48.680;8.998;2022-12-18T15:20:09;97730;;;-1.3;78.5
68965;BME280;56017;48.680;8.998;2022-12-18T15:22:46;97740;;;-1.4;78.5
68965;BME280;56017;48.680;8.998;2022-12-18T15:25:27;97740;;;-1.6;79
68965;BME280;56017;48.680;8.998;2022-12-18T15:27:48;97740;;;-1.5;78.5
68965;BME280;56017;48.680;8.998;2022-12-18T15:30:18;97730;;;-1.6;78
68965;BME280;56017;48.680;8.998;2022-12-18T15:32:50;97730;;;-1.8;78.5
68965;BME280;56017;48.680;8.998;2022-12-18T15:35:15;97740;;;-1.9;78.5
68965;BME280;56017;48.680;8.998;2022-12-18T15:37:52;97740;;;-2;79
68965;BME280;56017;48.680;8.998;2022-12-18T15:40:17;97740;;;-2.1;79
68965;BME280;56017;48.680;8.998;2022-12-18T15:42:54;97740;;;-2.1;79
68965;BME280;56017;48.680;8.998;2022-12-18T15:45:18;97740;;;-2;78.5
68965;BME280;56017;48.680;8.998;2022-12-18T15:47:56;97740;;;-2.1;78.5
68965;BME280;56017;48.680;8.998;2022-12-18T15:52:57;97740;;;-2.3;79